createdAt,value
2018-03-17T09:48:30.874Z,96.90
2018-03-17T09:50:58.362Z,96.90
2018-03-17T09:53:26.612Z,96.30
2018-03-17T09:55:54.086Z,96.30
2018-03-17T09:58:21.591Z,96.40
2018-03-17T10:00:49.102Z,96.60
2018-03-17T10:03:16.591Z,95.90
2018-03-17T10:05:44.847Z,96.00
2018-03-17T10:08:13.070Z,95.80
2018-03-17T10:10:40.598Z,95.80
2018-03-17T10:13:08.334Z,95.80
2018-03-17T10:15:37.107Z,95.50
2018-03-17T10:18:04.728Z,95.50
2018-03-17T10:20:32.276Z,94.90
2018-03-17T10:23:00.542Z,95.00
2018-03-17T10:25:29.900Z,94.70
2018-03-17T10:27:57.718Z,94.60
2018-03-17T10:30:25.396Z,95.00
2018-03-17T10:32:53.057Z,95.30
2018-03-17T10:35:20.656Z,95.40
2018-03-17T10:37:48.185Z,95.20
2018-03-17T10:40:15.910Z,95.00
2018-03-17T10:42:44.370Z,94.80
2018-03-17T10:45:12.339Z,94.80
2018-03-17T10:47:40.113Z,94.40
2018-03-17T10:50:08.624Z,94.20
2018-03-17T10:52:37.031Z,93.60
2018-03-17T10:55:04.539Z,93.60
2018-03-17T10:57:32.774Z,94.70
2018-03-17T11:00:00.383Z,94.80
2018-03-17T11:02:32.423Z,93.70
2018-03-17T11:05:00.023Z,93.70
2018-03-17T11:07:28.292Z,93.20
2018-03-17T11:09:56.770Z,93.30
2018-03-17T11:12:25.028Z,93.90
2018-03-17T11:14:52.500Z,93.90
2018-03-17T11:17:20.754Z,94.30
2018-03-17T11:19:48.338Z,94.30
2018-03-17T11:22:16.591Z,93.40
2018-03-17T11:24:44.070Z,93.30
2018-03-17T11:27:12.341Z,93.10
2018-03-17T11:29:40.582Z,92.70
2018-03-17T11:32:08.149Z,92.60
2018-03-17T11:34:35.639Z,92.60
2018-03-17T11:37:03.960Z,92.40
2018-03-17T11:39:31.491Z,92.40
2018-03-17T11:41:59.808Z,92.60
2018-03-17T11:44:27.343Z,92.60
2018-03-17T11:46:55.046Z,92.20
2018-03-17T11:49:24.066Z,92.60
2018-03-17T11:51:52.328Z,91.90
2018-03-17T11:54:19.975Z,91.90
2018-03-17T11:56:47.561Z,92.60
2018-03-17T11:59:15.826Z,92.30
2018-03-17T12:01:44.102Z,92.60
2018-03-17T12:04:11.620Z,92.60
2018-03-17T12:06:39.110Z,91.80
2018-03-17T12:09:07.351Z,91.10
2018-03-17T12:11:34.848Z,91.10
2018-03-17T12:14:02.348Z,91.30
2018-03-17T12:16:29.859Z,91.50
2018-03-17T12:18:57.327Z,92.30
2018-03-17T12:21:24.807Z,91.50
2018-03-17T12:23:52.347Z,91.50
2018-03-17T12:26:19.826Z,90.80
2018-03-17T12:28:47.338Z,90.90
2018-03-17T12:31:14.807Z,91.40
2018-03-17T12:33:42.304Z,91.00
2018-03-17T12:36:09.765Z,90.50
2018-03-17T12:38:38.065Z,91.80
2018-03-17T12:41:05.620Z,91.70
2018-03-17T12:43:33.182Z,91.20
2018-03-17T12:46:00.682Z,91.20
2018-03-17T12:48:28.151Z,91.40
2018-03-17T12:50:55.626Z,90.80
2018-03-17T12:53:23.094Z,90.80
2018-03-17T12:55:51.420Z,90.60
2018-03-17T12:58:19.732Z,90.10
2018-03-17T13:00:48.013Z,90.60
2018-03-17T13:03:15.487Z,90.90
2018-03-17T13:05:43.838Z,90.40
2018-03-17T13:08:12.125Z,90.40
2018-03-17T13:10:39.626Z,90.00
2018-03-17T13:13:07.382Z,90.30
2018-03-17T13:15:35.631Z,91.20
2018-03-17T13:18:03.918Z,90.20
2018-03-17T13:20:32.151Z,89.00
2018-03-17T13:23:12.735Z,89.00
2018-03-17T13:25:40.211Z,89.70
2018-03-17T13:28:20.289Z,88.70
2018-03-17T13:30:47.755Z,88.70
2018-03-17T13:33:15.242Z,88.50
2018-03-17T13:35:54.553Z,89.60
2018-03-17T13:38:22.105Z,89.70
2018-03-17T13:40:49.565Z,89.20
2018-03-17T13:43:17.182Z,90.00
2018-03-17T13:45:44.609Z,88.30
2018-03-17T13:48:12.105Z,88.60
2018-03-17T13:50:39.597Z,88.30
2018-03-17T13:53:07.092Z,88.80
2018-03-17T13:55:35.362Z,88.50
2018-03-17T13:58:03.043Z,88.40
2018-03-17T14:00:30.521Z,89.80
2018-03-17T14:02:57.993Z,88.30
2018-03-17T14:05:26.244Z,87.00
2018-03-17T14:07:53.702Z,87.00
2018-03-17T14:10:21.181Z,87.60
2018-03-17T14:12:49.455Z,88.10
2018-03-17T14:15:17.693Z,88.00
2018-03-17T14:17:45.235Z,87.90
2018-03-17T14:20:12.715Z,87.80
2018-03-17T14:22:40.201Z,88.50
2018-03-17T14:25:08.448Z,89.70
2018-03-17T14:27:35.989Z,89.70
2018-03-17T14:30:03.462Z,88.80
2018-03-17T14:32:30.955Z,89.20
2018-03-17T14:34:58.430Z,88.70
2018-03-17T14:37:26.667Z,89.30
2018-03-17T14:39:54.177Z,89.30
2018-03-17T14:42:21.681Z,88.90
2018-03-17T14:44:49.189Z,89.40
2018-03-17T14:47:17.434Z,88.90
2018-03-17T14:49:46.442Z,90.00
2018-03-17T14:52:14.693Z,90.40
2018-03-17T14:54:42.983Z,90.40
2018-03-17T14:57:10.459Z,90.40
2018-03-17T14:59:38.707Z,89.70
2018-03-17T15:02:06.170Z,89.70
2018-03-17T15:04:33.641Z,90.00
2018-03-17T15:07:01.907Z,89.60
2018-03-17T15:09:29.371Z,89.60
2018-03-17T15:11:57.406Z,89.10
2018-03-17T15:14:24.871Z,90.30
2018-03-17T15:16:52.363Z,88.50
2018-03-17T15:19:20.595Z,88.60
2018-03-17T15:21:48.081Z,88.60
2018-03-17T15:24:15.547Z,90.10
2018-03-17T15:26:43.126Z,89.20
2018-03-17T15:29:11.363Z,89.80
2018-03-17T15:31:38.909Z,89.80
2018-03-17T15:34:06.420Z,88.80
2018-03-17T15:36:34.657Z,90.00
2018-03-17T15:39:02.142Z,90.00
2018-03-17T15:41:29.611Z,90.30
2018-03-17T15:43:57.861Z,90.30
2018-03-17T15:46:25.334Z,90.30
2018-03-17T15:48:52.814Z,88.30
2018-03-17T15:51:21.043Z,89.60
2018-03-17T15:53:48.543Z,89.60
2018-03-17T15:56:16.790Z,90.40
2018-03-17T15:58:44.270Z,90.40
2018-03-17T16:01:12.537Z,90.90
2018-03-17T16:03:39.998Z,90.90
2018-03-17T16:06:08.250Z,90.10
2018-03-17T16:08:35.773Z,90.10
2018-03-17T16:11:03.250Z,90.80
2018-03-17T16:13:30.761Z,90.80
2018-03-17T16:15:58.289Z,90.40
2018-03-17T16:18:25.755Z,89.20
2018-03-17T16:20:54.016Z,90.10
2018-03-17T16:23:21.498Z,90.00
2018-03-17T16:26:22.460Z,90.10
2018-03-17T16:28:50.698Z,90.20
2018-03-17T16:31:18.190Z,90.20
2018-03-17T16:33:46.460Z,90.30
2018-03-17T16:36:14.694Z,90.70
2018-03-17T16:38:42.186Z,90.50
2018-03-17T16:41:09.670Z,90.00
2018-03-17T16:43:37.170Z,90.40
2018-03-17T16:46:04.651Z,90.50
2018-03-17T16:48:33.270Z,89.30
2018-03-17T16:51:01.538Z,90.00
2018-03-17T16:53:29.786Z,90.10
2018-03-17T16:55:57.270Z,90.10
2018-03-17T16:58:25.506Z,89.50
2018-03-17T17:00:53.006Z,89.50
2018-03-17T17:03:21.291Z,90.80
2018-03-17T17:05:48.734Z,90.80
2018-03-17T17:08:17.009Z,89.60
2018-03-17T17:10:45.349Z,89.70
2018-03-17T17:13:12.830Z,89.60
2018-03-17T17:15:40.323Z,89.60
2018-03-17T17:18:08.562Z,90.60
2018-03-17T17:20:36.058Z,90.60
2018-03-17T17:23:03.521Z,90.00
2018-03-17T17:25:31.005Z,89.70
2018-03-17T17:27:58.508Z,89.40
2018-03-17T17:30:26.750Z,89.90
2018-03-17T17:32:54.226Z,89.70
2018-03-17T17:35:21.705Z,90.00
2018-03-17T17:37:49.958Z,90.20
2018-03-17T17:40:17.446Z,90.20
2018-03-17T17:42:45.714Z,90.30
2018-03-17T17:45:13.946Z,90.00
2018-03-17T17:47:41.411Z,90.30
2018-03-17T17:50:08.902Z,90.20
2018-03-17T17:52:37.161Z,89.70
2018-03-17T17:55:04.644Z,89.70
2018-03-17T17:57:32.883Z,90.20
2018-03-17T18:00:00.381Z,90.20
2018-03-17T18:02:28.644Z,90.30
2018-03-17T18:04:56.154Z,90.30
2018-03-17T18:07:23.713Z,90.10
2018-03-17T18:09:51.294Z,90.20
2018-03-17T18:12:18.792Z,90.60
2018-03-17T18:14:47.070Z,90.20
2018-03-17T18:17:15.331Z,90.10
2018-03-17T18:19:44.313Z,90.70
2018-03-17T18:22:11.913Z,90.40
2018-03-17T18:24:40.155Z,90.50
2018-03-17T18:27:07.673Z,90.50
2018-03-17T18:29:35.144Z,90.20
2018-03-17T18:32:02.636Z,90.10
2018-03-17T18:34:30.162Z,89.20
2018-03-17T18:36:57.633Z,89.90
2018-03-17T18:39:25.130Z,89.10
2018-03-17T18:41:53.369Z,89.60
2018-03-17T18:44:20.881Z,89.50
2018-03-17T18:46:48.371Z,89.20
2018-03-17T18:49:15.868Z,90.00
2018-03-17T18:51:43.375Z,89.90
2018-03-17T18:54:10.904Z,89.50
2018-03-17T18:57:48.162Z,90.00
2018-03-17T19:00:15.676Z,88.70
2018-03-17T19:02:43.161Z,90.00
2018-03-17T19:05:10.650Z,89.40
2018-03-17T19:07:38.220Z,89.20
2018-03-17T19:10:05.721Z,89.90
2018-03-17T19:12:33.189Z,89.70
2018-03-17T19:15:00.655Z,89.70
2018-03-17T19:17:28.163Z,88.40
2018-03-17T19:19:56.396Z,89.90
2018-03-17T19:22:23.915Z,89.30
2018-03-17T19:24:51.417Z,89.30
2018-03-17T19:27:18.902Z,88.90
2018-03-17T19:29:47.150Z,89.60
2018-03-17T19:32:14.639Z,89.60
2018-03-17T19:34:42.929Z,90.00
2018-03-17T19:37:11.165Z,89.10
2018-03-17T19:39:38.654Z,89.00
2018-03-17T19:42:06.890Z,89.70
2018-03-17T19:44:34.449Z,89.60
2018-03-17T19:47:01.917Z,89.00
2018-03-17T19:49:29.402Z,89.30
2018-03-17T19:51:57.645Z,90.50
2018-03-17T19:54:25.149Z,90.30
2018-03-17T19:56:53.402Z,90.20
2018-03-17T19:59:21.682Z,90.00
2018-03-17T20:01:49.189Z,90.00
2018-03-17T20:04:16.786Z,90.00
2018-03-17T20:06:44.281Z,90.10
2018-03-17T20:09:12.606Z,89.50
2018-03-17T20:11:40.102Z,90.00
2018-03-17T20:14:07.586Z,90.00
2018-03-17T20:16:35.842Z,89.80
2018-03-17T20:19:04.468Z,89.70
2018-03-17T20:21:31.961Z,90.00
2018-03-17T20:23:59.452Z,89.90
2018-03-17T20:26:27.706Z,90.30
2018-03-17T20:28:55.231Z,90.30
2018-03-17T20:31:22.717Z,90.40
2018-03-17T20:33:50.209Z,90.20
2018-03-17T20:36:18.455Z,89.50
2018-03-17T20:38:45.962Z,90.00
2018-03-17T20:41:13.516Z,90.20
2018-03-17T20:43:41.022Z,90.20
2018-03-17T20:46:08.557Z,90.60
2018-03-17T20:48:36.037Z,90.10
2018-03-17T20:51:03.538Z,90.10
2018-03-17T20:53:31.799Z,90.00
2018-03-17T20:56:00.052Z,90.30
2018-03-17T20:58:27.551Z,90.30
2018-03-17T21:00:55.794Z,90.00
2018-03-17T21:03:23.294Z,90.00
2018-03-17T21:05:50.770Z,90.20
2018-03-17T21:08:18.290Z,90.10
2018-03-17T21:10:46.583Z,90.00
2018-03-17T21:13:14.850Z,89.90
2018-03-17T21:15:43.118Z,89.40
2018-03-17T21:18:10.586Z,89.40
2018-03-17T21:20:39.168Z,90.20
2018-03-17T21:23:07.405Z,89.90
2018-03-17T21:25:34.918Z,89.90
2018-03-17T21:28:02.398Z,89.60
2018-03-17T21:30:29.871Z,90.10
2018-03-17T21:32:57.366Z,90.00
2018-03-17T21:35:24.829Z,89.70
2018-03-17T21:37:53.082Z,89.70
